sensor_id;sensor_type;location;lat;lon;timestamp;temperature;humidity
14119;DHT22;7138;49.246;9.100;2022-09-19T00:01:34;7.30;99.90
14119;DHT22;7138;49.246;9.100;2022-09-19T00:04:03;7.30;99.90
14119;DHT22;7138;49.246;9.100;2022-09-19T00:06:32;7.20;99.90
14119;DHT22;7138;49.246;9.100;2022-09-19T00:09:04;7.20;99.90
14119;DHT22;7138;49.246;9.100;2022-09-19T00:11:33;7.20;99.90
14119;DHT22;7138;49.246;9.100;2022-09-19T00:14:00;7.20;99.90
14119;DHT22;7138;49.246;9.100;2022-09-19T00:16:27;7.10;99.90
14119;DHT22;7138;49.246;9.100;2022-09-19T00:18:57;7.10;99.90
14119;DHT22;7138;49.246;9.100;2022-09-19T00:21:27;7.10;99.90
14119;DHT22;7138;49.246;9.100;2022-09-19T00:23:55;7.10;99.90
14119;DHT22;7138;49.246;9.100;2022-09-19T00:26:41;7.10;99.90
14119;DHT22;7138;49.246;9.100;2022-09-19T00:29:09;7.00;99.90
14119;DHT22;7138;49.246;9.100;2022-09-19T00:31:35;7.00;99.90
14119;DHT22;7138;49.246;9.100;2022-09-19T00:34:03;7.00;99.90
14119;DHT22;7138;49.246;9.100;2022-09-19T00:36:35;7.00;99.90
14119;DHT22;7138;49.246;9.100;2022-09-19T00:39:03;7.00;99.90
14119;DHT22;7138;49.246;9.100;2022-09-19T00:41:30;6.90;99.90
14119;DHT22;7138;49.246;9.100;2022-09-19T00:43:58;6.90;99.90
14119;DHT22;7138;49.246;9.100;2022-09-19T00:46:27;6.80;99.90
14119;DHT22;7138;49.246;9.100;2022-09-19T00:48:58;6.80;99.90
14119;DHT22;7138;49.246;9.100;2022-09-19T00:51:32;6.80;99.90
14119;DHT22;7138;49.246;9.100;2022-09-19T00:54:02;6.80;99.90
14119;DHT22;7138;49.246;9.100;2022-09-19T00:56:33;6.80;99.90
14119;DHT22;7138;49.246;9.100;2022-09-19T00:59:02;6.80;99.90
14119;DHT22;7138;49.246;9.100;2022-09-19T01:01:28;6.80;99.90
14119;DHT22;7138;49.246;9.100;2022-09-19T01:03:55;6.70;99.90
14119;DHT22;7138;49.246;9.100;2022-09-19T01:06:38;6.70;99.90
14119;DHT22;7138;49.246;9.100;2022-09-19T01:09:23;6.60;99.90
14119;DHT22;7138;49.246;9.100;2022-09-19T01:12:12;6.70;99.90
14119;DHT22;7138;49.246;9.100;2022-09-19T01:17:59;6.70;99.90
14119;DHT22;7138;49.246;9.100;2022-09-19T01:24:27;6.80;99.90
14119;DHT22;7138;49.246;9.100;2022-09-19T01:27:27;6.80;99.90
14119;DHT22;7138;49.246;9.100;2022-09-19T01:30:07;6.90;99.90
14119;DHT22;7138;49.246;9.100;2022-09-19T01:32:37;6.90;99.90
14119;DHT22;7138;49.246;9.100;2022-09-19T01:35:11;6.90;99.90
14119;DHT22;7138;49.246;9.100;2022-09-19T01:37:45;7.00;99.90
14119;DHT22;7138;49.246;9.100;2022-09-19T01:40:17;7.00;99.90
14119;DHT22;7138;49.246;9.100;2022-09-19T01:42:51;7.00;99.90
14119;DHT22;7138;49.246;9.100;2022-09-19T01:45:25;7.00;99.90
14119;DHT22;7138;49.246;9.100;2022-09-19T01:48:01;7.00;99.90
14119;DHT22;7138;49.246;9.100;2022-09-19T01:50:41;7.10;99.90
14119;DHT22;7138;49.246;9.100;2022-09-19T01:53:29;7.10;99.90
14119;DHT22;7138;49.246;9.100;2022-09-19T01:56:10;7.10;99.90
14119;DHT22;7138;49.246;9.100;2022-09-19T01:58:42;7.10;99.90
14119;DHT22;7138;49.246;9.100;2022-09-19T02:01:21;7.00;99.90
14119;DHT22;7138;49.246;9.100;2022-09-19T02:03:56;7.00;99.90
14119;DHT22;7138;49.246;9.100;2022-09-19T02:06:35;7.00;99.90
14119;DHT22;7138;49.246;9.100;2022-09-19T02:09:17;7.00;99.90
14119;DHT22;7138;49.246;9.100;2022-09-19T02:11:48;7.00;99.90
14119;DHT22;7138;49.246;9.100;2022-09-19T02:14:18;7.00;99.90
14119;DHT22;7138;49.246;9.100;2022-09-19T02:16:49;7.00;99.90
14119;DHT22;7138;49.246;9.100;2022-09-19T02:19:30;7.00;99.90
14119;DHT22;7138;49.246;9.100;2022-09-19T02:22:01;7.00;99.90
14119;DHT22;7138;49.246;9.100;2022-09-19T02:24:32;7.00;99.90
14119;DHT22;7138;49.246;9.100;2022-09-19T02:27:06;7.00;99.90
14119;DHT22;7138;49.246;9.100;2022-09-19T02:29:36;7.00;99.90
14119;DHT22;7138;49.246;9.100;2022-09-19T02:32:08;7.00;99.90
14119;DHT22;7138;49.246;9.100;2022-09-19T02:34:35;7.00;99.90
14119;DHT22;7138;49.246;9.100;2022-09-19T02:37:05;7.10;99.90
14119;DHT22;7138;49.246;9.100;2022-09-19T02:39:43;7.10;99.90
14119;DHT22;7138;49.246;9.100;2022-09-19T02:42:18;7.20;99.90
14119;DHT22;7138;49.246;9.100;2022-09-19T02:44:58;7.10;99.90
14119;DHT22;7138;49.246;9.100;2022-09-19T02:47:39;7.20;99.90
14119;DHT22;7138;49.246;9.100;2022-09-19T02:50:17;7.20;99.90
14119;DHT22;7138;49.246;9.100;2022-09-19T02:52:49;7.30;99.90
14119;DHT22;7138;49.246;9.100;2022-09-19T02:55:21;7.30;99.90
14119;DHT22;7138;49.246;9.100;2022-09-19T02:57:54;7.30;99.90
14119;DHT22;7138;49.246;9.100;2022-09-19T03:00:24;7.40;99.90
14119;DHT22;7138;49.246;9.100;2022-09-19T03:02:55;7.40;99.90
14119;DHT22;7138;49.246;9.100;2022-09-19T03:05:49;7.50;99.90
14119;DHT22;7138;49.246;9.100;2022-09-19T03:08:17;7.50;99.90
14119;DHT22;7138;49.246;9.100;2022-09-19T03:10:53;7.50;99.90
14119;DHT22;7138;49.246;9.100;2022-09-19T03:13:24;7.50;99.90
14119;DHT22;7138;49.246;9.100;2022-09-19T03:15:55;7.50;99.90
14119;DHT22;7138;49.246;9.100;2022-09-19T03:18:28;7.50;99.90
14119;DHT22;7138;49.246;9.100;2022-09-19T03:20:58;7.50;99.90
14119;DHT22;7138;49.246;9.100;2022-09-19T03:23:31;7.50;99.90
14119;DHT22;7138;49.246;9.100;2022-09-19T03:26:00;7.50;99.90
14119;DHT22;7138;49.246;9.100;2022-09-19T03:28:27;7.60;99.90
14119;DHT22;7138;49.246;9.100;2022-09-19T03:30:53;7.60;99.90
14119;DHT22;7138;49.246;9.100;2022-09-19T03:33:24;7.60;99.90
14119;DHT22;7138;49.246;9.100;2022-09-19T03:35:53;7.60;99.90
14119;DHT22;7138;49.246;9.100;2022-09-19T03:38:23;7.60;99.90
14119;DHT22;7138;49.246;9.100;2022-09-19T03:40:49;7.60;99.90
14119;DHT22;7138;49.246;9.100;2022-09-19T03:43:15;7.70;99.90
14119;DHT22;7138;49.246;9.100;2022-09-19T03:45:44;7.70;99.90
14119;DHT22;7138;49.246;9.100;2022-09-19T03:48:10;7.70;99.90
14119;DHT22;7138;49.246;9.100;2022-09-19T03:50:36;7.70;99.90
14119;DHT22;7138;49.246;9.100;2022-09-19T03:53:03;7.70;99.90
14119;DHT22;7138;49.246;9.100;2022-09-19T03:55:32;7.70;99.90
14119;DHT22;7138;49.246;9.100;2022-09-19T03:58:00;7.70;99.90
14119;DHT22;7138;49.246;9.100;2022-09-19T04:00:25;7.80;99.90
14119;DHT22;7138;49.246;9.100;2022-09-19T04:02:51;7.80;99.90
14119;DHT22;7138;49.246;9.100;2022-09-19T04:05:19;7.80;99.90
14119;DHT22;7138;49.246;9.100;2022-09-19T04:07:44;7.80;99.90
14119;DHT22;7138;49.246;9.100;2022-09-19T04:10:11;7.80;99.90
14119;DHT22;7138;49.246;9.100;2022-09-19T04:12:37;7.80;99.90
14119;DHT22;7138;49.246;9.100;2022-09-19T04:15:04;7.80;99.90
14119;DHT22;7138;49.246;9.100;2022-09-19T04:17:31;7.80;99.90
14119;DHT22;7138;49.246;9.100;2022-09-19T04:19:57;7.80;99.90
14119;DHT22;7138;49.246;9.100;2022-09-19T04:22:23;7.80;99.90
14119;DHT22;7138;49.246;9.100;2022-09-19T04:24:49;7.80;99.90
14119;DHT22;7138;49.246;9.100;2022-09-19T04:27:18;7.80;99.90
14119;DHT22;7138;49.246;9.100;2022-09-19T04:29:44;7.80;99.90
14119;DHT22;7138;49.246;9.100;2022-09-19T04:32:10;7.80;99.90
14119;DHT22;7138;49.246;9.100;2022-09-19T04:34:37;7.90;99.90
14119;DHT22;7138;49.246;9.100;2022-09-19T04:37:03;7.90;99.90
14119;DHT22;7138;49.246;9.100;2022-09-19T04:39:31;7.90;99.90
14119;DHT22;7138;49.246;9.100;2022-09-19T04:42:00;7.90;99.90
14119;DHT22;7138;49.246;9.100;2022-09-19T04:44:28;7.90;99.90
14119;DHT22;7138;49.246;9.100;2022-09-19T04:46:55;7.90;99.90
14119;DHT22;7138;49.246;9.100;2022-09-19T04:49:21;7.90;99.90
14119;DHT22;7138;49.246;9.100;2022-09-19T04:51:47;7.90;99.90
14119;DHT22;7138;49.246;9.100;2022-09-19T04:54:13;7.90;99.90
14119;DHT22;7138;49.246;9.100;2022-09-19T04:56:40;7.90;99.90
14119;DHT22;7138;49.246;9.100;2022-09-19T04:59:12;7.90;99.90
14119;DHT22;7138;49.246;9.100;2022-09-19T05:01:39;7.90;99.90
14119;DHT22;7138;49.246;9.100;2022-09-19T05:04:05;7.90;99.90
14119;DHT22;7138;49.246;9.100;2022-09-19T05:06:31;7.90;99.90
14119;DHT22;7138;49.246;9.100;2022-09-19T05:08:57;7.90;99.90
14119;DHT22;7138;49.246;9.100;2022-09-19T05:11:24;7.90;99.90
14119;DHT22;7138;49.246;9.100;2022-09-19T05:13:50;7.90;99.90
14119;DHT22;7138;49.246;9.100;2022-09-19T05:16:18;7.90;99.90
14119;DHT22;7138;49.246;9.100;2022-09-19T05:18:46;7.90;99.90
14119;DHT22;7138;49.246;9.100;2022-09-19T05:21:14;7.90;99.90
14119;DHT22;7138;49.246;9.100;2022-09-19T05:23:41;8.00;99.90
14119;DHT22;7138;49.246;9.100;2022-09-19T05:26:09;8.00;99.90
14119;DHT22;7138;49.246;9.100;2022-09-19T05:28:38;8.00;99.90
14119;DHT22;7138;49.246;9.100;2022-09-19T05:31:06;8.00;99.90
14119;DHT22;7138;49.246;9.100;2022-09-19T05:33:33;8.00;99.90
14119;DHT22;7138;49.246;9.100;2022-09-19T05:36:02;8.00;99.90
14119;DHT22;7138;49.246;9.100;2022-09-19T05:38:29;8.00;99.90
14119;DHT22;7138;49.246;9.100;2022-09-19T05:40:57;8.00;99.90
14119;DHT22;7138;49.246;9.100;2022-09-19T05:43:24;8.10;99.90
14119;DHT22;7138;49.246;9.100;2022-09-19T05:45:51;8.10;99.90
14119;DHT22;7138;49.246;9.100;2022-09-19T05:48:19;8.10;99.90
14119;DHT22;7138;49.246;9.100;2022-09-19T05:50:46;8.20;99.90
14119;DHT22;7138;49.246;9.100;2022-09-19T05:53:14;8.20;99.90
14119;DHT22;7138;49.246;9.100;2022-09-19T05:56:00;8.30;99.90
14119;DHT22;7138;49.246;9.100;2022-09-19T05:58:28;8.30;99.90
14119;DHT22;7138;49.246;9.100;2022-09-19T06:00:54;8.30;99.90
14119;DHT22;7138;49.246;9.100;2022-09-19T06:03:20;8.30;99.90
14119;DHT22;7138;49.246;9.100;2022-09-19T06:05:49;8.30;99.90
14119;DHT22;7138;49.246;9.100;2022-09-19T06:08:19;8.30;99.90
14119;DHT22;7138;49.246;9.100;2022-09-19T06:10:48;8.30;99.90
14119;DHT22;7138;49.246;9.100;2022-09-19T06:13:16;8.40;99.90
14119;DHT22;7138;49.246;9.100;2022-09-19T06:15:43;8.40;99.90
14119;DHT22;7138;49.246;9.100;2022-09-19T06:18:09;8.50;99.90
14119;DHT22;7138;49.246;9.100;2022-09-19T06:20:35;8.50;99.90
14119;DHT22;7138;49.246;9.100;2022-09-19T06:23:03;8.60;99.90
14119;DHT22;7138;49.246;9.100;2022-09-19T06:25:33;8.70;99.90
14119;DHT22;7138;49.246;9.100;2022-09-19T06:28:02;9.00;99.90
14119;DHT22;7138;49.246;9.100;2022-09-19T06:30:30;9.70;99.90
14119;DHT22;7138;49.246;9.100;2022-09-19T06:32:56;10.20;99.90
14119;DHT22;7138;49.246;9.100;2022-09-19T06:35:24;10.30;99.90
14119;DHT22;7138;49.246;9.100;2022-09-19T06:37:57;10.30;99.90
14119;DHT22;7138;49.246;9.100;2022-09-19T06:40:26;10.00;99.90
14119;DHT22;7138;49.246;9.100;2022-09-19T06:42:57;9.90;99.90
14119;DHT22;7138;49.246;9.100;2022-09-19T06:45:26;9.90;99.90
14119;DHT22;7138;49.246;9.100;2022-09-19T06:47:56;9.90;99.90
14119;DHT22;7138;49.246;9.100;2022-09-19T06:50:22;9.80;99.90
14119;DHT22;7138;49.246;9.100;2022-09-19T06:52:49;9.90;99.90
14119;DHT22;7138;49.246;9.100;2022-09-19T06:55:15;9.90;99.90
14119;DHT22;7138;49.246;9.100;2022-09-19T06:57:41;9.70;99.90
14119;DHT22;7138;49.246;9.100;2022-09-19T07:00:10;9.70;99.90
14119;DHT22;7138;49.246;9.100;2022-09-19T07:02:37;9.70;99.90
14119;DHT22;7138;49.246;9.100;2022-09-19T07:05:03;9.70;99.90
14119;DHT22;7138;49.246;9.100;2022-09-19T07:07:29;9.80;99.90
14119;DHT22;7138;49.246;9.100;2022-09-19T07:09:56;9.90;99.90
14119;DHT22;7138;49.246;9.100;2022-09-19T07:12:22;9.90;99.90
14119;DHT22;7138;49.246;9.100;2022-09-19T07:14:48;9.90;99.90
14119;DHT22;7138;49.246;9.100;2022-09-19T07:17:15;10.00;99.90
14119;DHT22;7138;49.246;9.100;2022-09-19T07:19:41;10.00;99.90
14119;DHT22;7138;49.246;9.100;2022-09-19T07:22:07;10.10;99.90
14119;DHT22;7138;49.246;9.100;2022-09-19T07:24:33;9.90;99.90
14119;DHT22;7138;49.246;9.100;2022-09-19T07:26:59;9.90;99.90
14119;DHT22;7138;49.246;9.100;2022-09-19T07:29:25;9.90;99.90
14119;DHT22;7138;49.246;9.100;2022-09-19T07:31:51;9.90;99.90
14119;DHT22;7138;49.246;9.100;2022-09-19T07:34:18;9.90;99.90
14119;DHT22;7138;49.246;9.100;2022-09-19T07:36:44;10.00;99.90
14119;DHT22;7138;49.246;9.100;2022-09-19T07:39:09;10.10;99.90
14119;DHT22;7138;49.246;9.100;2022-09-19T07:41:35;10.00;99.90
14119;DHT22;7138;49.246;9.100;2022-09-19T07:44:01;10.20;99.90
14119;DHT22;7138;49.246;9.100;2022-09-19T07:46:28;10.30;99.90
14119;DHT22;7138;49.246;9.100;2022-09-19T07:48:53;10.40;99.90
14119;DHT22;7138;49.246;9.100;2022-09-19T07:51:20;10.70;99.90
14119;DHT22;7138;49.246;9.100;2022-09-19T07:53:46;11.20;99.90
14119;DHT22;7138;49.246;9.100;2022-09-19T07:56:14;11.50;99.90
14119;DHT22;7138;49.246;9.100;2022-09-19T07:58:40;11.70;99.90
14119;DHT22;7138;49.246;9.100;2022-09-19T08:01:06;11.90;99.90
14119;DHT22;7138;49.246;9.100;2022-09-19T08:03:32;11.80;99.90
14119;DHT22;7138;49.246;9.100;2022-09-19T08:05:59;11.70;99.90
14119;DHT22;7138;49.246;9.100;2022-09-19T08:08:28;11.50;99.90
14119;DHT22;7138;49.246;9.100;2022-09-19T08:10:57;11.30;99.90
14119;DHT22;7138;49.246;9.100;2022-09-19T08:13:26;11.20;99.90
14119;DHT22;7138;49.246;9.100;2022-09-19T08:15:53;11.20;99.90
14119;DHT22;7138;49.246;9.100;2022-09-19T08:18:20;11.10;99.90
14119;DHT22;7138;49.246;9.100;2022-09-19T08:20:48;11.20;99.90
14119;DHT22;7138;49.246;9.100;2022-09-19T08:23:18;11.20;99.90
14119;DHT22;7138;49.246;9.100;2022-09-19T08:25:47;11.40;99.90
14119;DHT22;7138;49.246;9.100;2022-09-19T08:28:17;11.40;99.90
14119;DHT22;7138;49.246;9.100;2022-09-19T08:30:45;11.40;99.90
14119;DHT22;7138;49.246;9.100;2022-09-19T08:33:13;11.40;99.90
14119;DHT22;7138;49.246;9.100;2022-09-19T08:35:40;11.40;99.90
14119;DHT22;7138;49.246;9.100;2022-09-19T08:38:09;11.60;99.90
14119;DHT22;7138;49.246;9.100;2022-09-19T08:40:53;11.60;99.90
14119;DHT22;7138;49.246;9.100;2022-09-19T08:43:39;11.50;99.90
14119;DHT22;7138;49.246;9.100;2022-09-19T08:46:13;11.20;99.90
14119;DHT22;7138;49.246;9.100;2022-09-19T08:48:50;11.40;99.90
14119;DHT22;7138;49.246;9.100;2022-09-19T08:51:25;11.30;99.90
14119;DHT22;7138;49.246;9.100;2022-09-19T08:53:57;11.30;99.90
14119;DHT22;7138;49.246;9.100;2022-09-19T08:56:29;11.40;99.90
14119;DHT22;7138;49.246;9.100;2022-09-19T08:58:59;11.30;99.90
14119;DHT22;7138;49.246;9.100;2022-09-19T09:01:33;11.20;99.90
14119;DHT22;7138;49.246;9.100;2022-09-19T09:04:11;11.30;99.90
14119;DHT22;7138;49.246;9.100;2022-09-19T09:07:07;11.50;99.90
14119;DHT22;7138;49.246;9.100;2022-09-19T09:10:00;11.50;99.90
14119;DHT22;7138;49.246;9.100;2022-09-19T09:12:42;11.50;99.90
14119;DHT22;7138;49.246;9.100;2022-09-19T09:15:22;11.40;99.90
14119;DHT22;7138;49.246;9.100;2022-09-19T09:18:07;11.40;99.90
14119;DHT22;7138;49.246;9.100;2022-09-19T09:20:49;11.40;99.90
14119;DHT22;7138;49.246;9.100;2022-09-19T09:23:25;11.40;99.90
14119;DHT22;7138;49.246;9.100;2022-09-19T09:25:59;11.50;99.90
14119;DHT22;7138;49.246;9.100;2022-09-19T09:28:37;11.60;99.90
14119;DHT22;7138;49.246;9.100;2022-09-19T09:31:14;11.70;99.90
14119;DHT22;7138;49.246;9.100;2022-09-19T09:33:54;11.70;99.90
14119;DHT22;7138;49.246;9.100;2022-09-19T09:36:28;11.70;99.90
14119;DHT22;7138;49.246;9.100;2022-09-19T09:39:02;11.60;99.90
14119;DHT22;7138;49.246;9.100;2022-09-19T09:41:40;11.70;99.90
14119;DHT22;7138;49.246;9.100;2022-09-19T09:44:34;11.80;99.90
14119;DHT22;7138;49.246;9.100;2022-09-19T09:47:17;12.00;99.90
14119;DHT22;7138;49.246;9.100;2022-09-19T09:49:48;12.00;99.90
14119;DHT22;7138;49.246;9.100;2022-09-19T09:52:26;12.50;99.90
14119;DHT22;7138;49.246;9.100;2022-09-19T09:55:14;12.50;99.90
14119;DHT22;7138;49.246;9.100;2022-09-19T09:58:18;12.50;99.90
14119;DHT22;7138;49.246;9.100;2022-09-19T10:01:05;12.60;99.90
14119;DHT22;7138;49.246;9.100;2022-09-19T10:04:09;12.60;99.90
14119;DHT22;7138;49.246;9.100;2022-09-19T10:06:46;12.50;99.90
14119;DHT22;7138;49.246;9.100;2022-09-19T10:09:21;12.50;99.90
14119;DHT22;7138;49.246;9.100;2022-09-19T10:11:56;12.60;99.90
14119;DHT22;7138;49.246;9.100;2022-09-19T10:14:35;12.70;99.90
14119;DHT22;7138;49.246;9.100;2022-09-19T10:17:06;12.80;99.90
14119;DHT22;7138;49.246;9.100;2022-09-19T10:19:36;12.90;99.90
14119;DHT22;7138;49.246;9.100;2022-09-19T10:22:09;12.90;99.90
14119;DHT22;7138;49.246;9.100;2022-09-19T10:24:42;12.70;99.90
14119;DHT22;7138;49.246;9.100;2022-09-19T10:27:12;12.50;99.90
14119;DHT22;7138;49.246;9.100;2022-09-19T10:29:48;12.70;99.90
14119;DHT22;7138;49.246;9.100;2022-09-19T10:32:18;12.90;99.90
14119;DHT22;7138;49.246;9.100;2022-09-19T10:34:50;12.90;99.90
14119;DHT22;7138;49.246;9.100;2022-09-19T10:37:17;12.90;99.90
14119;DHT22;7138;49.246;9.100;2022-09-19T10:39:47;12.90;99.90
14119;DHT22;7138;49.246;9.100;2022-09-19T10:42:35;12.80;99.90
14119;DHT22;7138;49.246;9.100;2022-09-19T10:45:15;12.80;99.90
14119;DHT22;7138;49.246;9.100;2022-09-19T10:47:45;13.00;99.90
14119;DHT22;7138;49.246;9.100;2022-09-19T10:50:15;13.30;99.90
14119;DHT22;7138;49.246;9.100;2022-09-19T10:52:43;13.40;99.90
14119;DHT22;7138;49.246;9.100;2022-09-19T10:55:13;13.30;99.90
14119;DHT22;7138;49.246;9.100;2022-09-19T10:57:45;13.20;99.90
14119;DHT22;7138;49.246;9.100;2022-09-19T11:00:22;13.00;99.90
14119;DHT22;7138;49.246;9.100;2022-09-19T11:03:02;13.00;99.90
14119;DHT22;7138;49.246;9.100;2022-09-19T11:05:32;13.30;99.90
14119;DHT22;7138;49.246;9.100;2022-09-19T11:07:59;13.50;99.90
14119;DHT22;7138;49.246;9.100;2022-09-19T11:10:32;13.50;99.90
14119;DHT22;7138;49.246;9.100;2022-09-19T11:13:13;13.40;99.90
14119;DHT22;7138;49.246;9.100;2022-09-19T11:15:58;13.40;99.90
14119;DHT22;7138;49.246;9.100;2022-09-19T11:18:49;13.50;99.90
14119;DHT22;7138;49.246;9.100;2022-09-19T11:21:34;13.40;99.90
14119;DHT22;7138;49.246;9.100;2022-09-19T11:30:20;13.20;99.90
14119;DHT22;7138;49.246;9.100;2022-09-19T11:33:12;13.40;99.90
14119;DHT22;7138;49.246;9.100;2022-09-19T11:35:58;13.80;99.90
14119;DHT22;7138;49.246;9.100;2022-09-19T11:38:39;13.90;99.90
14119;DHT22;7138;49.246;9.100;2022-09-19T11:41:32;14.00;99.90
14119;DHT22;7138;49.246;9.100;2022-09-19T11:47:23;14.20;99.90
14119;DHT22;7138;49.246;9.100;2022-09-19T11:50:26;13.80;99.90
14119;DHT22;7138;49.246;9.100;2022-09-19T11:53:26;13.80;99.90
14119;DHT22;7138;49.246;9.100;2022-09-19T11:56:20;14.00;99.90
14119;DHT22;7138;49.246;9.100;2022-09-19T11:59:06;14.30;99.90
14119;DHT22;7138;49.246;9.100;2022-09-19T12:01:55;14.10;99.90
14119;DHT22;7138;49.246;9.100;2022-09-19T12:04:40;14.30;99.90
14119;DHT22;7138;49.246;9.100;2022-09-19T12:07:27;14.30;99.90
14119;DHT22;7138;49.246;9.100;2022-09-19T12:10:10;14.30;99.90
14119;DHT22;7138;49.246;9.100;2022-09-19T12:12:42;14.20;99.90
14119;DHT22;7138;49.246;9.100;2022-09-19T12:15:17;14.20;99.90
14119;DHT22;7138;49.246;9.100;2022-09-19T12:17:53;14.20;99.90
14119;DHT22;7138;49.246;9.100;2022-09-19T12:20:25;14.20;99.90
14119;DHT22;7138;49.246;9.100;2022-09-19T12:22:59;14.00;99.90
14119;DHT22;7138;49.246;9.100;2022-09-19T12:25:52;13.90;99.90
14119;DHT22;7138;49.246;9.100;2022-09-19T12:28:27;13.80;99.90
14119;DHT22;7138;49.246;9.100;2022-09-19T12:30:59;13.90;99.90
14119;DHT22;7138;49.246;9.100;2022-09-19T12:33:34;13.90;99.90
14119;DHT22;7138;49.246;9.100;2022-09-19T12:36:11;14.00;99.90
14119;DHT22;7138;49.246;9.100;2022-09-19T12:38:49;14.10;99.90
14119;DHT22;7138;49.246;9.100;2022-09-19T12:41:22;14.80;99.90
14119;DHT22;7138;49.246;9.100;2022-09-19T12:43:59;15.30;99.90
14119;DHT22;7138;49.246;9.100;2022-09-19T12:46:36;15.60;99.90
14119;DHT22;7138;49.246;9.100;2022-09-19T12:49:17;15.60;99.90
14119;DHT22;7138;49.246;9.100;2022-09-19T12:51:58;15.80;99.90
14119;DHT22;7138;49.246;9.100;2022-09-19T12:54:34;15.40;99.90
14119;DHT22;7138;49.246;9.100;2022-09-19T12:57:13;15.20;99.90
14119;DHT22;7138;49.246;9.100;2022-09-19T12:59:45;14.90;99.90
14119;DHT22;7138;49.246;9.100;2022-09-19T13:02:21;14.90;99.90
14119;DHT22;7138;49.246;9.100;2022-09-19T13:04:57;14.70;99.90
14119;DHT22;7138;49.246;9.100;2022-09-19T13:07:31;14.90;99.90
14119;DHT22;7138;49.246;9.100;2022-09-19T13:10:16;14.80;99.90
14119;DHT22;7138;49.246;9.100;2022-09-19T13:12:50;14.70;99.90
14119;DHT22;7138;49.246;9.100;2022-09-19T13:15:27;14.50;99.90
14119;DHT22;7138;49.246;9.100;2022-09-19T13:17:58;14.40;99.90
14119;DHT22;7138;49.246;9.100;2022-09-19T13:20:46;14.30;99.90
14119;DHT22;7138;49.246;9.100;2022-09-19T13:23:34;14.40;99.90
14119;DHT22;7138;49.246;9.100;2022-09-19T13:26:23;14.80;99.90
14119;DHT22;7138;49.246;9.100;2022-09-19T13:28:58;15.00;99.90
14119;DHT22;7138;49.246;9.100;2022-09-19T13:31:31;15.20;99.90
14119;DHT22;7138;49.246;9.100;2022-09-19T13:34:36;15.40;99.90
14119;DHT22;7138;49.246;9.100;2022-09-19T13:40:42;14.70;99.90
14119;DHT22;7138;49.246;9.100;2022-09-19T13:43:53;14.40;99.90
14119;DHT22;7138;49.246;9.100;2022-09-19T13:46:28;14.50;99.90
14119;DHT22;7138;49.246;9.100;2022-09-19T13:49:00;14.30;99.90
14119;DHT22;7138;49.246;9.100;2022-09-19T13:51:40;14.20;99.90
14119;DHT22;7138;49.246;9.100;2022-09-19T13:54:29;14.20;99.90
14119;DHT22;7138;49.246;9.100;2022-09-19T13:57:09;14.10;99.90
14119;DHT22;7138;49.246;9.100;2022-09-19T13:59:39;13.90;99.90
14119;DHT22;7138;49.246;9.100;2022-09-19T14:02:23;13.60;99.90
14119;DHT22;7138;49.246;9.100;2022-09-19T14:04:58;13.30;99.90
14119;DHT22;7138;49.246;9.100;2022-09-19T14:07:37;13.20;99.90
14119;DHT22;7138;49.246;9.100;2022-09-19T14:10:18;13.10;99.90
14119;DHT22;7138;49.246;9.100;2022-09-19T14:12:51;12.80;99.90
14119;DHT22;7138;49.246;9.100;2022-09-19T14:18:51;11.90;99.90
14119;DHT22;7138;49.246;9.100;2022-09-19T14:21:51;11.60;99.90
14119;DHT22;7138;49.246;9.100;2022-09-19T14:30:41;11.10;99.90
14119;DHT22;7138;49.246;9.100;2022-09-19T14:40:25;11.50;99.90
14119;DHT22;7138;49.246;9.100;2022-09-19T14:46:21;11.80;99.90
14119;DHT22;7138;49.246;9.100;2022-09-19T14:49:04;12.20;99.90
14119;DHT22;7138;49.246;9.100;2022-09-19T14:51:40;12.60;99.90
14119;DHT22;7138;49.246;9.100;2022-09-19T14:54:17;12.90;99.90
14119;DHT22;7138;49.246;9.100;2022-09-19T14:56:53;13.10;99.90
14119;DHT22;7138;49.246;9.100;2022-09-19T14:59:21;13.10;99.90
14119;DHT22;7138;49.246;9.100;2022-09-19T15:01:48;13.20;99.90
14119;DHT22;7138;49.246;9.100;2022-09-19T15:04:20;13.30;99.90
14119;DHT22;7138;49.246;9.100;2022-09-19T15:06:51;13.40;99.90
14119;DHT22;7138;49.246;9.100;2022-09-19T15:09:19;13.50;99.90
14119;DHT22;7138;49.246;9.100;2022-09-19T15:11:48;13.50;99.90
14119;DHT22;7138;49.246;9.100;2022-09-19T15:14:16;13.50;99.90
14119;DHT22;7138;49.246;9.100;2022-09-19T15:16:48;13.60;99.90
14119;DHT22;7138;49.246;9.100;2022-09-19T15:19:17;13.50;99.90
14119;DHT22;7138;49.246;9.100;2022-09-19T15:21:45;13.50;99.90
14119;DHT22;7138;49.246;9.100;2022-09-19T15:24:14;13.40;99.90
14119;DHT22;7138;49.246;9.100;2022-09-19T15:26:43;13.40;99.90
14119;DHT22;7138;49.246;9.100;2022-09-19T15:29:23;13.40;99.90
14119;DHT22;7138;49.246;9.100;2022-09-19T15:32:14;13.40;99.90
14119;DHT22;7138;49.246;9.100;2022-09-19T15:34:44;13.60;99.90
14119;DHT22;7138;49.246;9.100;2022-09-19T15:37:16;13.60;99.90
14119;DHT22;7138;49.246;9.100;2022-09-19T15:39:46;13.30;99.90
14119;DHT22;7138;49.246;9.100;2022-09-19T15:42:15;13.00;99.90
14119;DHT22;7138;49.246;9.100;2022-09-19T15:44:42;12.80;99.90
14119;DHT22;7138;49.246;9.100;2022-09-19T15:47:12;12.70;99.90
14119;DHT22;7138;49.246;9.100;2022-09-19T15:49:41;12.60;99.90
14119;DHT22;7138;49.246;9.100;2022-09-19T15:52:15;12.60;99.90
14119;DHT22;7138;49.246;9.100;2022-09-19T15:54:49;12.80;99.90
14119;DHT22;7138;49.246;9.100;2022-09-19T15:57:23;12.90;99.90
14119;DHT22;7138;49.246;9.100;2022-09-19T16:00:10;12.80;99.90
14119;DHT22;7138;49.246;9.100;2022-09-19T16:02:47;12.80;99.90
14119;DHT22;7138;49.246;9.100;2022-09-19T16:05:18;12.80;99.90
14119;DHT22;7138;49.246;9.100;2022-09-19T16:07:48;12.70;99.90
14119;DHT22;7138;49.246;9.100;2022-09-19T16:10:37;12.70;99.90
14119;DHT22;7138;49.246;9.100;2022-09-19T16:16:00;12.80;99.90
14119;DHT22;7138;49.246;9.100;2022-09-19T16:18:27;13.00;99.90
14119;DHT22;7138;49.246;9.100;2022-09-19T16:21:00;13.20;99.90
14119;DHT22;7138;49.246;9.100;2022-09-19T16:23:41;13.40;99.90
14119;DHT22;7138;49.246;9.100;2022-09-19T16:26:10;13.40;99.90
14119;DHT22;7138;49.246;9.100;2022-09-19T16:28:39;13.30;99.90
14119;DHT22;7138;49.246;9.100;2022-09-19T16:31:20;13.20;99.90
14119;DHT22;7138;49.246;9.100;2022-09-19T16:33:50;13.10;99.90
14119;DHT22;7138;49.246;9.100;2022-09-19T16:36:19;13.00;99.90
14119;DHT22;7138;49.246;9.100;2022-09-19T16:39:17;13.00;99.90
14119;DHT22;7138;49.246;9.100;2022-09-19T16:41:57;12.90;99.90
14119;DHT22;7138;49.246;9.100;2022-09-19T16:44:37;12.80;99.90
14119;DHT22;7138;49.246;9.100;2022-09-19T16:47:13;12.70;99.90
14119;DHT22;7138;49.246;9.100;2022-09-19T16:49:42;12.60;99.90
14119;DHT22;7138;49.246;9.100;2022-09-19T16:52:15;12.50;99.90
14119;DHT22;7138;49.246;9.100;2022-09-19T16:54:44;12.40;99.90
14119;DHT22;7138;49.246;9.100;2022-09-19T16:57:11;12.30;99.90
14119;DHT22;7138;49.246;9.100;2022-09-19T16:59:38;12.20;99.90
14119;DHT22;7138;49.246;9.100;2022-09-19T17:02:12;12.20;99.90
14119;DHT22;7138;49.246;9.100;2022-09-19T17:04:41;12.20;99.90
14119;DHT22;7138;49.246;9.100;2022-09-19T17:07:09;12.10;99.90
14119;DHT22;7138;49.246;9.100;2022-09-19T17:09:35;12.10;99.90
14119;DHT22;7138;49.246;9.100;2022-09-19T17:12:01;12.00;99.90
14119;DHT22;7138;49.246;9.100;2022-09-19T17:14:29;11.90;99.90